createdAt,value
2018-09-21T00:01:25.702Z,83.20
2018-09-21T00:03:58.944Z,83.50
2018-09-21T00:06:26.474Z,83.50
2018-09-21T00:08:54.398Z,83.80
2018-09-21T00:11:22.017Z,83.70
2018-09-21T00:13:50.062Z,83.80
2018-09-21T00:16:18.257Z,83.90
2018-09-21T00:18:46.297Z,83.90
2018-09-21T00:21:13.871Z,84.10
2018-09-21T00:23:41.677Z,84.20
2018-09-21T00:26:09.690Z,84.20
2018-09-21T00:28:37.494Z,84.40
2018-09-21T00:31:05.485Z,84.40
2018-09-21T00:33:33.110Z,84.40
2018-09-21T00:36:00.733Z,84.60
2018-09-21T00:38:28.393Z,84.40
2018-09-21T00:40:55.981Z,84.40
2018-09-21T00:43:23.541Z,84.40
2018-09-21T00:45:51.401Z,84.30
2018-09-21T00:48:19.486Z,84.30
2018-09-21T00:50:47.322Z,84.60
2018-09-21T00:53:15.306Z,84.60
2018-09-21T00:55:44.061Z,84.50
2018-09-21T00:58:11.613Z,84.60
2018-09-21T01:00:39.193Z,84.50
2018-09-21T01:03:06.739Z,84.50
2018-09-21T01:05:34.341Z,84.30
2018-09-21T01:08:01.958Z,83.70
2018-09-21T01:10:29.552Z,83.40
2018-09-21T01:12:58.009Z,83.30
2018-09-21T01:15:26.042Z,83.10
2018-09-21T01:17:53.591Z,82.90
2018-09-21T01:20:21.160Z,82.70
2018-09-21T01:22:48.719Z,82.50
2018-09-21T01:25:16.368Z,82.00
2018-09-21T01:27:43.913Z,81.90
2018-09-21T01:30:11.529Z,81.80
2018-09-21T01:32:39.128Z,81.30
2018-09-21T01:35:06.805Z,81.00
2018-09-21T01:37:34.429Z,80.90
2018-09-21T01:40:02.001Z,80.40
2018-09-21T01:42:29.633Z,79.90
2018-09-21T01:44:57.184Z,78.90
2018-09-21T01:47:24.890Z,78.60
2018-09-21T01:49:52.906Z,78.40
2018-09-21T01:52:20.482Z,79.00
2018-09-21T01:54:48.033Z,79.20
2018-09-21T01:57:15.605Z,79.30
2018-09-21T01:59:44.293Z,79.50
2018-09-21T02:02:11.893Z,79.40
2018-09-21T02:04:40.469Z,79.80
2018-09-21T02:07:10.828Z,79.50
2018-09-21T02:09:38.640Z,79.40
2018-09-21T02:12:06.222Z,79.50
2018-09-21T02:14:34.112Z,79.00
2018-09-21T02:17:02.011Z,78.60
2018-09-21T02:19:29.678Z,78.80
2018-09-21T02:21:57.354Z,78.60
2018-09-21T02:24:24.933Z,78.60
2018-09-21T02:26:52.519Z,78.30
2018-09-21T02:29:20.339Z,78.50
2018-09-21T02:31:48.482Z,78.60
2018-09-21T02:34:16.369Z,78.60
2018-09-21T02:36:43.980Z,78.30
2018-09-21T02:39:11.526Z,78.60
2018-09-21T02:41:39.179Z,78.70
2018-09-21T02:44:06.829Z,78.50
2018-09-21T02:46:34.572Z,78.30
2018-09-21T02:49:02.318Z,78.30
2018-09-21T02:51:30.394Z,78.00
2018-09-21T02:53:57.986Z,78.20
2018-09-21T02:56:25.797Z,78.40
2018-09-21T02:58:53.449Z,78.00
2018-09-21T03:01:21.026Z,78.20
2018-09-21T03:03:48.953Z,78.10
2018-09-21T03:06:16.554Z,78.60
2018-09-21T03:08:44.178Z,78.70
2018-09-21T03:11:11.977Z,78.90
2018-09-21T03:13:40.684Z,79.00
2018-09-21T03:16:08.285Z,79.40
2018-09-21T03:18:35.890Z,79.20
2018-09-21T03:21:03.509Z,79.40
2018-09-21T03:23:31.259Z,78.70
2018-09-21T03:25:58.821Z,78.00
2018-09-21T03:28:26.395Z,77.50
2018-09-21T03:30:53.993Z,77.20
2018-09-21T03:33:21.590Z,77.00
2018-09-21T03:35:49.283Z,76.70
2018-09-21T03:38:16.849Z,76.50
2018-09-21T03:40:44.521Z,76.50
2018-09-21T03:43:12.170Z,76.40
2018-09-21T03:45:40.305Z,76.50
2018-09-21T03:48:07.996Z,76.60
2018-09-21T03:50:35.934Z,76.70
2018-09-21T03:53:03.617Z,76.80
2018-09-21T03:55:31.201Z,77.00
2018-09-21T03:57:58.821Z,77.00
2018-09-21T04:00:26.629Z,77.30
2018-09-21T04:02:54.209Z,77.80
2018-09-21T04:05:21.752Z,78.00
2018-09-21T04:07:49.345Z,78.40
2018-09-21T04:10:16.911Z,78.70
2018-09-21T04:12:44.777Z,78.80
2018-09-21T04:15:12.355Z,78.90
2018-09-21T04:17:39.930Z,79.30
2018-09-21T04:20:07.516Z,79.50
2018-09-21T04:22:35.100Z,79.70
2018-09-21T04:25:03.343Z,79.90
2018-09-21T04:27:31.135Z,80.10
2018-09-21T04:29:58.760Z,80.30
2018-09-21T04:32:26.329Z,80.30
2018-09-21T04:34:54.558Z,80.50
2018-09-21T04:37:22.145Z,80.80
2018-09-21T04:39:49.973Z,81.20
2018-09-21T04:42:18.112Z,81.50
2018-09-21T04:44:46.174Z,81.70
2018-09-21T04:47:13.753Z,81.90
2018-09-21T04:49:41.777Z,82.60
2018-09-21T04:52:09.497Z,82.00
2018-09-21T04:54:37.035Z,82.30
2018-09-21T04:57:04.641Z,82.40
2018-09-21T04:59:32.197Z,82.70
2018-09-21T05:01:59.761Z,82.90
2018-09-21T05:04:27.346Z,83.10
2018-09-21T05:06:55.600Z,83.30
2018-09-21T05:09:23.265Z,83.40
2018-09-21T05:11:50.809Z,83.60
2018-09-21T05:14:18.465Z,83.80
2018-09-21T05:16:46.090Z,84.00
2018-09-21T05:19:13.707Z,84.00
2018-09-21T05:21:41.653Z,84.20
2018-09-21T05:24:09.707Z,84.30
2018-09-21T05:26:37.280Z,84.40
2018-09-21T05:29:05.490Z,84.60
2018-09-21T05:31:33.027Z,84.60
2018-09-21T05:34:00.636Z,84.60
2018-09-21T05:36:28.188Z,84.70
2018-09-21T05:38:56.021Z,85.00
2018-09-21T05:41:24.730Z,85.20
2018-09-21T05:43:52.330Z,85.30
2018-09-21T05:46:19.903Z,85.40
2018-09-21T05:48:47.671Z,85.60
2018-09-21T05:51:15.209Z,85.80
2018-09-21T05:53:43.397Z,86.00
2018-09-21T05:56:11.310Z,86.20
2018-09-21T05:58:39.082Z,86.10
2018-09-21T06:01:06.664Z,86.30
2018-09-21T06:03:34.921Z,86.30
2018-09-21T06:06:02.521Z,86.50
2018-09-21T06:08:30.073Z,87.30
2018-09-21T06:10:59.436Z,86.80
2018-09-21T06:13:27.072Z,86.90
2018-09-21T06:15:55.041Z,87.00
2018-09-21T06:18:22.689Z,87.10
2018-09-21T06:20:50.882Z,87.20
2018-09-21T06:23:18.785Z,87.20
2018-09-21T06:25:46.461Z,87.00
2018-09-21T06:28:14.021Z,87.00
2018-09-21T06:30:41.589Z,86.80
2018-09-21T06:33:09.266Z,86.20
2018-09-21T06:35:36.853Z,85.80
2018-09-21T06:38:04.445Z,85.40
2018-09-21T06:40:32.017Z,84.50
2018-09-21T06:43:00.130Z,83.70
2018-09-21T06:45:27.803Z,83.20
2018-09-21T06:47:55.398Z,82.30
2018-09-21T06:50:23.086Z,81.70
2018-09-21T06:52:50.714Z,81.80
2018-09-21T06:55:19.171Z,80.60
2018-09-21T06:57:46.733Z,79.90
2018-09-21T07:00:14.368Z,79.70
2018-09-21T07:02:41.946Z,78.80
2018-09-21T07:05:12.369Z,77.30
2018-09-21T07:07:39.949Z,76.50
2018-09-21T07:10:07.633Z,76.30
2018-09-21T07:12:35.164Z,75.50
2018-09-21T07:15:03.046Z,75.10
2018-09-21T07:17:30.602Z,74.60
2018-09-21T07:19:58.172Z,74.50
2018-09-21T07:22:25.717Z,73.80
2018-09-21T07:24:53.269Z,74.00
2018-09-21T07:27:20.840Z,74.70
2018-09-21T07:29:48.425Z,74.10
2018-09-21T07:32:15.989Z,74.20
2018-09-21T07:34:43.630Z,74.20
2018-09-21T07:37:11.200Z,74.40
2018-09-21T07:39:38.784Z,74.50
2018-09-21T07:42:06.368Z,74.70
2018-09-21T07:44:34.040Z,74.70
2018-09-21T07:47:01.574Z,74.80
2018-09-21T07:49:29.165Z,75.40
2018-09-21T07:51:56.761Z,75.10
2018-09-21T07:54:24.443Z,75.10
2018-09-21T07:56:52.766Z,75.10
2018-09-21T07:59:20.373Z,75.20
2018-09-21T08:01:47.894Z,75.30
2018-09-21T08:04:15.433Z,75.40
2018-09-21T08:06:42.962Z,75.50
2018-09-21T08:09:11.074Z,75.60
2018-09-21T08:11:38.729Z,75.60
2018-09-21T08:14:07.069Z,75.90
2018-09-21T08:16:35.553Z,75.10
2018-09-21T08:19:03.405Z,75.10
2018-09-21T08:21:31.310Z,75.10
2018-09-21T08:23:58.813Z,75.30
2018-09-21T08:26:26.404Z,75.40
2018-09-21T08:28:54.161Z,75.30
2018-09-21T08:31:22.582Z,75.50
2018-09-21T08:33:50.793Z,75.50
2018-09-21T08:36:18.384Z,76.10
2018-09-21T08:38:45.913Z,75.90
2018-09-21T08:41:13.469Z,76.30
2018-09-21T08:43:41.037Z,76.60
2018-09-21T08:46:08.609Z,77.30
2018-09-21T08:48:36.709Z,77.30
2018-09-21T08:51:04.442Z,77.80
2018-09-21T08:53:32.086Z,78.40
2018-09-21T08:55:59.669Z,78.90
2018-09-21T08:58:27.213Z,80.00
2018-09-21T09:00:54.905Z,82.40
2018-09-21T09:03:22.580Z,90.20
2018-09-21T09:05:51.112Z,96.80
2018-09-21T09:08:18.878Z,99.90
2018-09-21T09:10:46.466Z,99.90
2018-09-21T09:13:14.112Z,99.90
2018-09-21T09:15:41.730Z,99.90
2018-09-21T09:18:09.981Z,99.90
2018-09-21T09:20:37.611Z,99.90
2018-09-21T09:23:05.365Z,99.90
2018-09-21T09:25:33.432Z,99.90
2018-09-21T09:28:00.973Z,99.90
2018-09-21T09:30:28.559Z,99.90
2018-09-21T09:32:56.181Z,99.90
2018-09-21T09:35:24.377Z,99.90
2018-09-21T09:37:51.946Z,99.90
2018-09-21T09:40:19.509Z,99.90
2018-09-21T09:42:47.108Z,99.90
2018-09-21T09:45:14.796Z,99.90
2018-09-21T09:47:42.453Z,99.90
2018-09-21T09:50:10.038Z,99.90
2018-09-21T09:52:37.606Z,99.90
2018-09-21T09:55:05.334Z,99.90
2018-09-21T09:57:32.912Z,99.90
2018-09-21T10:00:00.465Z,99.90
2018-09-21T10:02:29.452Z,99.90
2018-09-21T10:04:57.444Z,99.90
2018-09-21T10:07:25.025Z,99.90
2018-09-21T10:09:52.592Z,99.90
2018-09-21T10:12:20.478Z,99.90
2018-09-21T10:14:48.017Z,99.90
2018-09-21T10:17:15.557Z,99.90
2018-09-21T10:19:43.316Z,99.90
2018-09-21T10:22:10.894Z,99.90
2018-09-21T10:24:38.713Z,99.90
2018-09-21T10:27:06.357Z,99.90
2018-09-21T10:29:33.849Z,99.90
2018-09-21T10:32:01.421Z,99.90
2018-09-21T10:34:28.991Z,99.30
2018-09-21T10:36:56.821Z,99.10
2018-09-21T10:39:25.365Z,99.50
2018-09-21T10:41:52.925Z,98.90
2018-09-21T10:44:20.474Z,98.60
2018-09-21T10:46:48.250Z,99.10
2018-09-21T10:49:15.820Z,97.50
2018-09-21T10:51:43.829Z,97.70
2018-09-21T10:54:11.381Z,97.70
2018-09-21T10:56:38.916Z,98.90
2018-09-21T10:59:06.462Z,98.00
2018-09-21T11:01:34.046Z,97.60
2018-09-21T11:04:01.578Z,97.00
2018-09-21T11:06:29.130Z,97.50
2018-09-21T11:08:56.660Z,97.10
2018-09-21T11:11:24.197Z,96.60
2018-09-21T11:13:51.910Z,96.50
2018-09-21T11:16:19.441Z,96.20
2018-09-21T11:18:46.990Z,95.90
2018-09-21T11:21:14.675Z,96.30
2018-09-21T11:23:42.282Z,95.50
2018-09-21T11:26:10.873Z,95.20
2018-09-21T11:28:38.424Z,95.30
2018-09-21T11:31:05.934Z,95.10
2018-09-21T11:33:33.471Z,95.30
2018-09-21T11:36:01.031Z,94.30
2018-09-21T11:38:28.621Z,94.60
2018-09-21T11:40:56.840Z,94.30
2018-09-21T11:43:24.639Z,93.50
2018-09-21T11:45:52.873Z,93.30
2018-09-21T11:48:21.528Z,93.10
2018-09-21T11:50:50.638Z,92.70
2018-09-21T11:53:18.875Z,92.80
2018-09-21T11:55:46.478Z,92.90
2018-09-21T11:58:14.032Z,92.40
2018-09-21T12:00:42.479Z,91.90
2018-09-21T12:03:10.092Z,91.30
2018-09-21T12:05:37.645Z,90.80
2018-09-21T12:08:05.274Z,91.20
2018-09-21T12:10:32.858Z,91.40
2018-09-21T12:13:00.686Z,91.80
2018-09-21T12:15:28.446Z,92.30
2018-09-21T12:17:56.021Z,92.90
2018-09-21T12:20:23.571Z,93.60
2018-09-21T12:22:51.231Z,94.40
2018-09-21T12:25:18.713Z,94.40
2018-09-21T12:27:46.316Z,93.20
2018-09-21T12:30:13.880Z,92.90
2018-09-21T12:32:41.405Z,92.70
2018-09-21T12:35:08.965Z,92.10
2018-09-21T12:37:36.556Z,91.40
2018-09-21T12:40:04.152Z,91.60
2018-09-21T12:42:31.800Z,90.70
2018-09-21T12:44:59.325Z,90.00
2018-09-21T12:47:26.901Z,90.50
2018-09-21T12:49:54.445Z,90.70
2018-09-21T12:52:22.001Z,90.20
2018-09-21T12:54:49.553Z,90.00
2018-09-21T12:57:17.088Z,88.90
2018-09-21T12:59:44.680Z,88.90
2018-09-21T13:02:12.425Z,89.00
2018-09-21T13:04:39.973Z,89.60
2018-09-21T13:07:07.521Z,89.00
2018-09-21T13:09:35.101Z,87.50
2018-09-21T13:12:02.666Z,86.70
2018-09-21T13:14:30.278Z,85.00
2018-09-21T13:16:57.797Z,83.80
2018-09-21T13:19:25.374Z,84.20
2018-09-21T13:21:52.933Z,83.90
2018-09-21T13:24:20.541Z,82.30
2018-09-21T13:26:48.155Z,81.70
2018-09-21T13:29:15.688Z,81.60
2018-09-21T13:31:43.222Z,81.80
2018-09-21T13:34:10.790Z,81.30
2018-09-21T13:36:38.456Z,81.80
2018-09-21T13:39:08.353Z,81.20
2018-09-21T13:41:35.905Z,80.30
2018-09-21T13:44:03.457Z,80.80
2018-09-21T13:46:30.984Z,81.20
2018-09-21T13:48:58.617Z,81.50
2018-09-21T13:51:26.161Z,82.60
2018-09-21T13:53:53.846Z,82.40
2018-09-21T13:56:21.565Z,83.50
2018-09-21T13:58:49.226Z,83.90
2018-09-21T14:01:16.898Z,84.40
2018-09-21T14:03:44.463Z,84.00
2018-09-21T14:06:11.992Z,83.60
2018-09-21T14:08:39.530Z,84.00
2018-09-21T14:11:07.194Z,84.30
2018-09-21T14:13:34.764Z,84.90
2018-09-21T14:16:02.272Z,80.20
2018-09-21T14:18:29.792Z,78.20
2018-09-21T14:20:57.365Z,75.90
2018-09-21T14:23:24.874Z,75.70
2018-09-21T14:25:53.254Z,76.00
2018-09-21T14:28:21.173Z,75.00
2018-09-21T14:30:48.778Z,72.60
2018-09-21T14:33:16.332Z,72.50
2018-09-21T14:35:44.002Z,70.90
2018-09-21T14:38:11.544Z,66.80
2018-09-21T14:40:39.529Z,64.70
2018-09-21T14:43:07.193Z,61.20
2018-09-21T14:45:34.757Z,57.80
2018-09-21T14:48:02.317Z,55.90
2018-09-21T14:50:29.907Z,54.80
2018-09-21T14:52:57.396Z,50.50
2018-09-21T14:55:24.970Z,48.10
2018-09-21T14:57:52.681Z,48.90
2018-09-21T15:00:20.288Z,47.20
2018-09-21T15:02:47.877Z,46.30
2018-09-21T15:05:15.433Z,43.70
2018-09-21T15:07:42.961Z,41.90
2018-09-21T15:10:11.048Z,41.00
2018-09-21T15:12:38.597Z,41.00
2018-09-21T15:15:06.181Z,44.10
2018-09-21T15:17:33.893Z,45.60
2018-09-21T15:20:01.457Z,48.00
2018-09-21T15:22:28.986Z,49.40
2018-09-21T15:24:56.541Z,49.20
2018-09-21T15:27:24.116Z,49.20
2018-09-21T15:29:51.751Z,48.30
2018-09-21T15:32:19.355Z,46.40
2018-09-21T15:34:47.700Z,44.60
2018-09-21T15:37:15.677Z,43.10
2018-09-21T15:39:43.265Z,43.60
2018-09-21T15:42:10.995Z,45.20
2018-09-21T15:44:39.602Z,42.00
2018-09-21T15:47:07.171Z,40.90
2018-09-21T15:49:34.739Z,42.70
2018-09-21T15:52:02.468Z,41.50
2018-09-21T15:54:30.021Z,42.30
2018-09-21T15:56:57.559Z,41.20
2018-09-21T15:59:25.172Z,41.60
2018-09-21T16:01:52.793Z,42.40
2018-09-21T16:04:20.387Z,43.50
2018-09-21T16:06:48.057Z,43.50
2018-09-21T16:09:15.580Z,43.10
2018-09-21T16:11:43.137Z,43.50
2018-09-21T16:14:11.175Z,42.90
2018-09-21T16:16:39.109Z,42.90
2018-09-21T16:19:06.671Z,43.70
2018-09-21T16:21:34.233Z,43.20
2018-09-21T16:24:01.822Z,43.10
2018-09-21T16:26:29.837Z,43.00
2018-09-21T16:28:57.381Z,43.30
2018-09-21T16:31:24.942Z,42.80
2018-09-21T16:33:52.644Z,42.90
2018-09-21T16:36:20.267Z,42.50
2018-09-21T16:38:47.860Z,42.20
2018-09-21T16:41:15.437Z,42.80
2018-09-21T16:43:45.813Z,42.80
2018-09-21T16:46:13.847Z,42.80
2018-09-21T16:48:41.404Z,42.20
2018-09-21T16:51:08.958Z,41.30
2018-09-21T16:53:36.609Z,42.20
2018-09-21T16:56:04.137Z,43.20
2018-09-21T16:58:31.669Z,43.20
2018-09-21T17:00:59.182Z,45.50
2018-09-21T17:03:26.770Z,46.10
2018-09-21T17:05:54.614Z,48.30
2018-09-21T17:08:22.159Z,50.80
2018-09-21T17:10:49.688Z,53.00
2018-09-21T17:13:17.242Z,53.50
2018-09-21T17:15:44.770Z,54.40
2018-09-21T17:18:12.322Z,55.40
2018-09-21T17:20:39.873Z,56.20
2018-09-21T17:23:07.458Z,57.30
2018-09-21T17:25:35.049Z,57.80
2018-09-21T17:28:03.587Z,58.30
2018-09-21T17:30:31.190Z,58.90
2018-09-21T17:32:58.817Z,59.40
2018-09-21T17:35:26.344Z,60.20
2018-09-21T17:37:54.009Z,60.40
2018-09-21T17:40:21.673Z,61.20
2018-09-21T17:42:49.220Z,61.90
2018-09-21T17:45:16.809Z,62.40
2018-09-21T17:47:44.367Z,62.80
2018-09-21T17:50:11.929Z,63.40
2018-09-21T17:52:39.575Z,63.50
2018-09-21T17:55:07.389Z,64.10
2018-09-21T17:57:35.018Z,64.70
2018-09-21T18:00:02.650Z,64.60
2018-09-21T18:02:30.205Z,65.20
2018-09-21T18:05:28.537Z,65.70
2018-09-21T18:07:56.342Z,66.00
2018-09-21T18:10:23.955Z,66.30
2018-09-21T18:12:51.997Z,66.70
2018-09-21T18:15:19.532Z,67.20
2018-09-21T18:17:47.081Z,67.10
2018-09-21T18:20:14.726Z,67.40
2018-09-21T18:22:42.257Z,67.20
2018-09-21T18:25:09.824Z,67.40
2018-09-21T18:27:37.622Z,67.10
2018-09-21T18:30:05.593Z,66.90
2018-09-21T18:32:33.442Z,67.20
2018-09-21T18:35:01.320Z,66.60
2018-09-21T18:37:28.872Z,66.10
2018-09-21T18:39:56.413Z,66.50
2018-09-21T18:44:52.749Z,65.30
2018-09-21T18:47:24.403Z,66.00
2018-09-21T18:49:51.961Z,65.80
2018-09-21T18:52:21.380Z,65.30
2018-09-21T18:54:49.781Z,64.90
2018-09-21T18:57:19.653Z,65.00
2018-09-21T18:59:49.357Z,64.70
2018-09-21T19:02:19.761Z,65.00
2018-09-21T19:04:49.785Z,65.00
2018-09-21T19:07:23.657Z,65.00
2018-09-21T19:09:51.501Z,65.00
2018-09-21T19:12:22.325Z,64.80
2018-09-21T19:14:50.350Z,64.60
2018-09-21T19:17:17.925Z,64.60
2018-09-21T19:19:45.624Z,64.40
2018-09-21T19:22:13.153Z,64.80
2018-09-21T19:24:40.728Z,65.00
2018-09-21T19:27:08.333Z,65.00
2018-09-21T19:29:35.901Z,65.30
2018-09-21T19:32:03.421Z,65.80
2018-09-21T19:34:31.136Z,66.20
2018-09-21T19:36:58.649Z,66.50
2018-09-21T19:39:26.392Z,66.70
2018-09-21T19:41:54.191Z,67.30
2018-09-21T19:44:21.765Z,67.40
2018-09-21T19:46:50.233Z,67.70
2018-09-21T19:49:17.870Z,68.10
2018-09-21T19:51:45.444Z,68.60
2018-09-21T19:54:13.273Z,69.00
2018-09-21T19:56:41.229Z,69.50
2018-09-21T19:59:08.812Z,69.50
2018-09-21T20:01:36.390Z,69.60
2018-09-21T20:04:03.953Z,69.80
2018-09-21T20:06:31.505Z,70.20
2018-09-21T20:08:59.126Z,70.30
2018-09-21T20:11:26.829Z,70.40
2018-09-21T20:13:54.514Z,70.50
2018-09-21T20:16:22.170Z,71.00
2018-09-21T20:18:49.883Z,71.00
2018-09-21T21:08:09.338Z,74.10
2018-09-21T21:10:36.908Z,74.60
2018-09-21T21:13:04.501Z,74.70
2018-09-21T21:15:32.117Z,74.90
2018-09-21T21:18:00.080Z,74.90
2018-09-21T21:20:27.645Z,75.10
2018-09-21T21:22:55.189Z,75.40
2018-09-21T21:25:22.761Z,75.70
2018-09-21T21:27:50.318Z,75.90
2018-09-21T21:30:17.900Z,76.00
2018-09-21T21:32:46.061Z,76.20
2018-09-21T21:35:13.637Z,76.30
2018-09-21T21:37:41.190Z,76.50
2018-09-21T21:40:08.753Z,76.50
2018-09-21T21:42:37.765Z,76.50
2018-09-21T21:45:05.521Z,76.70
2018-09-21T21:47:33.066Z,76.70
2018-09-21T21:50:00.675Z,76.90
2018-09-21T21:52:28.238Z,77.10
2018-09-21T21:54:56.146Z,77.30
2018-09-21T21:57:24.476Z,77.30
2018-09-21T21:59:52.053Z,77.60
2018-09-21T22:02:19.658Z,77.80
2018-09-21T22:04:47.245Z,77.90
2018-09-21T22:07:14.813Z,78.00
2018-09-21T22:09:44.141Z,78.10
2018-09-21T22:12:17.168Z,78.70
2018-09-21T22:14:44.787Z,78.20
2018-09-21T22:17:12.334Z,78.30
2018-09-21T22:19:40.093Z,78.30
2018-09-21T22:22:07.757Z,78.40
2018-09-21T22:24:35.277Z,78.40
2018-09-21T22:27:02.885Z,78.50
2018-09-21T22:29:30.436Z,78.70
2018-09-21T22:31:57.974Z,79.00
2018-09-21T22:34:25.522Z,79.10
2018-09-21T22:36:53.093Z,79.30
2018-09-21T22:39:20.654Z,79.60
2018-09-21T22:41:50.379Z,79.90
2018-09-21T22:44:17.961Z,80.10
2018-09-21T22:46:45.549Z,80.50
2018-09-21T22:49:19.333Z,80.60
2018-09-21T22:51:47.332Z,80.80
2018-09-21T22:54:14.888Z,81.00
2018-09-21T22:56:42.490Z,81.10
2018-09-21T22:59:10.127Z,81.20
2018-09-21T23:01:37.695Z,81.60
2018-09-21T23:04:05.453Z,81.50
2018-09-21T23:06:33.041Z,81.90
2018-09-21T23:09:00.617Z,82.00
2018-09-21T23:11:28.204Z,82.20
2018-09-21T23:13:56.815Z,82.50
2018-09-21T23:16:24.429Z,82.80
2018-09-21T23:18:51.987Z,83.10
2018-09-21T23:21:19.546Z,83.30
2018-09-21T23:23:47.343Z,83.50
2018-09-21T23:26:14.904Z,83.70
2018-09-21T23:28:42.490Z,83.90
2018-09-21T23:31:10.491Z,84.20
2018-09-21T23:33:38.065Z,84.30
2018-09-21T23:36:05.610Z,84.60
2018-09-21T23:38:33.182Z,85.00
2018-09-21T23:41:00.713Z,85.00
2018-09-21T23:43:28.289Z,85.10
2018-09-21T23:45:56.072Z,85.30
2018-09-21T23:48:23.618Z,85.50
2018-09-21T23:50:51.189Z,85.80
2018-09-21T23:53:18.813Z,85.80
2018-09-21T23:55:47.524Z,86.10
2018-09-21T23:58:15.217Z,86.20
